Time;durP1;ratioP1;P1;durP2;ratioP2;P2;SDS_P1;SDS_P2;PMS_P1;PMS_P2;Temp;Humidity;BMP_temperature;BMP_pressure;BME280_temperature;BME280_humidity;BME280_pressure;Samples;Min_cycle;Max_cycle;Signal;HPM_P1;HPM_P2
2022/05/20 00:00:18;;;;;;;3.60;3.03;;;19.40;99.90;;;;;;5072469;28;20829;-72
2022/05/20 00:02:46;;;;;;;3.97;2.33;;;19.40;99.90;;;;;;5072430;28;20500;-71
2022/05/20 00:05:13;;;;;;;2.17;1.97;;;19.30;99.90;;;;;;5073176;28;20519;-73
2022/05/20 00:07:40;;;;;;;3.30;2.90;;;19.30;99.90;;;;;;5071530;28;20882;-73
2022/05/20 00:10:08;;;;;;;4.97;3.10;;;19.30;99.90;;;;;;5072250;28;20458;-73
2022/05/20 00:12:37;;;;;;;3.30;3.00;;;19.30;99.90;;;;;;5072338;28;20452;-73
2022/05/20 00:15:06;;;;;;;3.40;3.10;;;19.30;99.90;;;;;;5072226;28;20442;-72
2022/05/20 00:17:33;;;;;;;3.70;2.47;;;19.20;99.90;;;;;;5072125;28;20477;-73
2022/05/20 00:20:00;;;;;;;4.20;3.13;;;19.20;99.90;;;;;;5071831;28;20442;-72
2022/05/20 00:22:27;;;;;;;3.17;2.80;;;19.20;99.90;;;;;;5071279;28;21063;-73
2022/05/20 00:27:40;;;;;;;2.60;2.40;;;19.00;99.90;;;;;;5071312;28;20514;-73
2022/05/20 00:30:07;;;;;;;4.47;2.93;;;19.00;99.90;;;;;;5072275;28;20457;-73
2022/05/20 00:32:34;;;;;;;3.00;2.50;;;19.00;99.90;;;;;;5072227;28;20479;-72
2022/05/20 00:35:01;;;;;;;3.50;3.20;;;19.00;99.90;;;;;;5071520;28;20454;-72
2022/05/20 00:37:28;;;;;;;3.50;3.17;;;19.00;99.90;;;;;;5071244;28;20897;-73
2022/05/20 00:39:55;;;;;;;3.40;2.90;;;18.90;99.90;;;;;;5071758;28;20807;-72
2022/05/20 00:42:22;;;;;;;3.97;2.40;;;18.90;99.90;;;;;;5071805;28;20478;-73
2022/05/20 00:44:50;;;;;;;3.43;3.10;;;19.00;99.90;;;;;;5071074;28;20548;-72
2022/05/20 00:47:17;;;;;;;2.83;2.53;;;19.00;99.90;;;;;;5071398;28;20521;-72
2022/05/20 00:49:48;;;;;;;3.53;2.80;;;19.00;99.90;;;;;;5070823;28;20442;-73
2022/05/20 00:52:18;;;;;;;4.00;3.50;;;19.00;99.90;;;;;;5071022;28;20971;-73
2022/05/20 00:54:47;;;;;;;3.63;3.00;;;18.90;99.90;;;;;;5064701;28;20453;-73
2022/05/20 00:57:20;;;;;;;3.10;2.80;;;18.80;99.90;;;;;;5070923;28;20448;-72
2022/05/20 00:59:51;;;;;;;3.27;2.60;;;18.80;99.90;;;;;;5071063;28;20462;-73
2022/05/20 01:02:21;;;;;;;3.70;3.10;;;18.70;99.90;;;;;;5070469;28;20466;-73
2022/05/20 01:04:49;;;;;;;3.43;3.00;;;18.60;99.90;;;;;;5062140;28;20562;-73
2022/05/20 01:07:19;;;;;;;3.97;2.80;;;18.70;99.90;;;;;;5071820;28;20521;-73
2022/05/20 01:09:46;;;;;;;3.33;2.43;;;18.50;99.90;;;;;;5068873;28;20446;-73
2022/05/20 01:12:13;;;;;;;3.63;3.10;;;18.40;99.90;;;;;;5071646;28;20536;-73
2022/05/20 01:14:40;;;;;;;3.43;3.10;;;18.40;99.90;;;;;;5070450;28;20454;-73
2022/05/20 01:17:09;;;;;;;2.73;2.53;;;18.40;99.90;;;;;;5070021;28;20438;-75
2022/05/20 01:19:40;;;;;;;3.97;3.03;;;18.40;99.90;;;;;;5071663;28;20448;-73
2022/05/20 01:22:09;;;;;;;4.77;3.00;;;18.50;99.90;;;;;;5071495;28;20561;-74
2022/05/20 01:24:38;;;;;;;4.17;2.67;;;18.50;99.90;;;;;;5069647;28;20474;-72
2022/05/20 01:27:06;;;;;;;4.33;3.00;;;18.40;99.90;;;;;;5070875;28;20450;-74
2022/05/20 01:29:33;;;;;;;3.30;3.00;;;18.30;99.90;;;;;;5071322;28;20546;-72
2022/05/20 01:32:00;;;;;;;4.70;3.60;;;18.20;99.90;;;;;;5069741;28;20504;-72
2022/05/20 01:34:26;;;;;;;4.60;2.77;;;18.10;99.90;;;;;;5070932;28;20942;-72
2022/05/20 01:36:53;;;;;;;3.27;2.50;;;18.10;99.90;;;;;;5070540;28;20446;-73
2022/05/20 01:39:21;;;;;;;3.37;2.87;;;18.10;99.90;;;;;;5070322;28;20474;-73
2022/05/20 01:41:57;;;;;;;3.00;2.70;;;18.00;99.90;;;;;;5070448;28;20477;-72
2022/05/20 01:44:29;;;;;;;2.77;2.50;;;18.00;99.90;;;;;;5070330;28;20921;-73
2022/05/20 01:47:03;;;;;;;3.27;2.90;;;18.00;99.90;;;;;;5070233;28;20449;-74
2022/05/20 01:49:42;;;;;;;3.70;3.23;;;18.00;99.90;;;;;;5071033;28;20450;-73
2022/05/20 01:52:18;;;;;;;3.20;2.90;;;17.90;99.90;;;;;;5070213;28;20581;-71
2022/05/20 01:54:57;;;;;;;3.27;2.63;;;17.90;99.90;;;;;;5069927;28;20438;-72
2022/05/20 01:57:31;;;;;;;4.67;3.63;;;17.90;99.90;;;;;;5059005;28;20453;-72
2022/05/20 02:00:03;;;;;;;5.63;3.57;;;17.80;99.90;;;;;;5069423;28;21025;-74
2022/05/20 02:02:43;;;;;;;4.20;3.47;;;17.80;99.90;;;;;;5070615;28;20480;-72
2022/05/20 02:05:17;;;;;;;3.57;3.23;;;17.80;99.90;;;;;;5069469;28;20537;-72
2022/05/20 02:07:50;;;;;;;2.90;2.57;;;17.80;99.90;;;;;;5069462;28;20444;-73
2022/05/20 02:10:23;;;;;;;5.03;3.13;;;17.80;99.90;;;;;;5061101;28;20442;-72
2022/05/20 02:12:54;;;;;;;3.53;2.50;;;17.70;99.90;;;;;;5069645;28;20476;-74
2022/05/20 02:15:26;;;;;;;5.00;2.63;;;17.80;99.90;;;;;;5070806;28;20445;-72
2022/05/20 02:17:57;;;;;;;2.90;2.60;;;17.80;99.90;;;;;;5069487;28;20532;-71
2022/05/20 02:20:31;;;;;;;3.80;3.50;;;17.90;99.90;;;;;;5070558;28;20454;-71
2022/05/20 02:23:02;;;;;;;4.53;3.10;;;17.90;99.90;;;;;;5070196;28;20516;-72
2022/05/20 02:25:33;;;;;;;3.07;2.77;;;17.90;99.90;;;;;;5071014;28;20452;-72
2022/05/20 02:28:04;;;;;;;4.47;2.73;;;17.80;99.90;;;;;;5056828;28;20805;-72
2022/05/20 02:30:34;;;;;;;4.90;3.10;;;17.80;99.90;;;;;;5071575;28;20446;-72
2022/05/20 02:33:06;;;;;;;3.87;3.27;;;17.80;99.90;;;;;;5070197;28;20442;-72
2022/05/20 02:35:34;;;;;;;4.50;3.60;;;17.70;99.90;;;;;;5070378;28;20452;-72
2022/05/20 02:38:06;;;;;;;3.27;2.83;;;17.70;99.90;;;;;;5069655;28;20524;-71
2022/05/20 02:40:33;;;;;;;3.07;2.50;;;17.80;99.90;;;;;;5070820;28;20449;-72
2022/05/20 02:43:02;;;;;;;3.70;2.50;;;17.70;99.90;;;;;;5069743;28;20452;-72
2022/05/20 02:45:29;;;;;;;4.10;2.83;;;17.70;99.90;;;;;;5070951;28;20500;-72
2022/05/20 02:47:57;;;;;;;5.23;4.30;;;17.80;99.90;;;;;;5072799;28;20457;-72
2022/05/20 02:50:24;;;;;;;3.10;2.80;;;17.90;99.90;;;;;;5074211;28;20493;-72
2022/05/20 02:52:51;;;;;;;3.10;2.60;;;18.10;99.90;;;;;;5073207;28;20901;-72
2022/05/20 02:55:18;;;;;;;3.80;2.97;;;18.30;99.90;;;;;;5074137;28;20810;-71
2022/05/20 02:57:45;;;;;;;4.57;3.50;;;18.40;99.90;;;;;;5072635;28;20437;-71
2022/05/20 03:05:52;;;;;;;3.87;3.10;;;18.10;99.90;;;;;;5072998;28;20453;-73
2022/05/20 03:08:19;;;;;;;3.03;2.70;;;18.00;99.90;;;;;;5073910;28;20904;-72
2022/05/20 03:10:46;;;;;;;3.87;3.00;;;18.00;99.90;;;;;;5073819;28;20856;-73
2022/05/20 03:13:14;;;;;;;3.30;2.53;;;18.00;99.90;;;;;;5074242;28;20476;-73
2022/05/20 03:15:42;;;;;;;4.00;3.20;;;18.00;99.90;;;;;;5073626;28;20441;-74
2022/05/20 03:18:10;;;;;;;4.00;3.33;;;18.00;99.90;;;;;;5073605;28;20472;-72
2022/05/20 03:20:38;;;;;;;3.07;2.73;;;18.00;99.90;;;;;;5073410;28;20460;-74
2022/05/20 03:23:05;;;;;;;4.73;3.50;;;18.20;99.90;;;;;;5060290;28;20477;-73
2022/05/20 03:25:33;;;;;;;3.53;2.87;;;18.20;99.90;;;;;;5074199;28;20536;-73
2022/05/20 03:28:01;;;;;;;4.33;3.50;;;18.10;99.90;;;;;;5059822;28;20457;-73
2022/05/20 03:30:27;;;;;;;4.00;3.30;;;18.20;99.90;;;;;;5073464;28;20461;-74
2022/05/20 03:32:56;;;;;;;3.60;3.30;;;18.10;99.90;;;;;;5073346;28;20797;-73
2022/05/20 03:35:23;;;;;;;3.47;3.10;;;18.10;99.90;;;;;;5082857;28;20444;-73
2022/05/20 03:37:49;;;;;;;5.10;3.47;;;18.10;99.90;;;;;;5068572;28;20466;-74
2022/05/20 03:40:16;;;;;;;6.10;3.40;;;18.20;99.90;;;;;;5073016;28;20480;-73
2022/05/20 03:42:43;;;;;;;3.33;3.00;;;18.20;99.90;;;;;;5072452;28;20488;-74
2022/05/20 03:45:11;;;;;;;3.57;3.10;;;18.30;99.90;;;;;;5073334;28;20536;-73
2022/05/20 03:47:38;;;;;;;4.80;3.47;;;18.30;99.90;;;;;;5071365;28;20966;-73
2022/05/20 03:50:07;;;;;;;4.43;3.50;;;18.40;99.90;;;;;;5073373;28;20450;-72
2022/05/20 03:52:34;;;;;;;4.40;2.83;;;18.30;99.90;;;;;;5073154;28;20449;-72
2022/05/20 03:55:01;;;;;;;4.70;3.70;;;18.40;99.90;;;;;;5072364;28;20446;-72
2022/05/20 03:57:28;;;;;;;3.40;3.10;;;18.40;99.90;;;;;;5071218;28;20449;-73
2022/05/20 03:59:54;;;;;;;3.73;2.70;;;18.50;99.90;;;;;;5072196;28;20465;-72
2022/05/20 04:02:20;;;;;;;6.80;4.20;;;18.40;99.90;;;;;;5072666;28;20895;-73
2022/05/20 04:04:51;;;;;;;4.20;3.50;;;18.50;99.90;;;;;;5071955;28;20534;-73
2022/05/20 04:07:22;;;;;;;3.87;3.57;;;18.40;99.90;;;;;;5072610;28;20191;-72
2022/05/20 04:09:49;;;;;;;6.30;3.70;;;18.50;99.90;;;;;;5072069;28;20485;-72
2022/05/20 04:12:25;;;;;;;3.83;3.50;;;18.50;99.90;;;;;;5072594;28;20838;-73
2022/05/20 04:14:52;;;;;;;6.20;3.47;;;18.50;99.90;;;;;;5071745;28;20449;-73
2022/05/20 04:17:19;;;;;;;3.80;3.00;;;18.50;99.90;;;;;;5071951;28;20480;-72
2022/05/20 04:19:46;;;;;;;3.23;2.93;;;18.50;99.90;;;;;;5072047;28;20537;-72
2022/05/20 04:22:17;;;;;;;4.60;3.57;;;18.60;99.90;;;;;;5072142;28;20477;-73
2022/05/20 04:24:45;;;;;;;4.20;3.03;;;18.50;99.90;;;;;;5068439;28;20449;-73
2022/05/20 04:27:12;;;;;;;3.20;2.67;;;18.60;99.90;;;;;;5072189;28;20453;-73
2022/05/20 04:29:39;;;;;;;3.10;2.60;;;18.50;99.90;;;;;;5071608;28;21158;-73
2022/05/20 04:32:07;;;;;;;4.30;3.33;;;18.60;99.90;;;;;;5072285;28;20477;-73
2022/05/20 04:34:34;;;;;;;3.90;2.80;;;18.50;99.90;;;;;;5072370;28;20463;-73
2022/05/20 04:37:01;;;;;;;3.87;3.30;;;18.60;99.90;;;;;;5070906;28;20998;-72
2022/05/20 04:39:28;;;;;;;7.47;3.53;;;18.60;99.90;;;;;;5071866;28;20449;-72
2022/05/20 04:47:28;;;;;;;3.83;3.10;;;18.70;99.90;;;;;;5058733;28;20787;-73
2022/05/20 04:49:55;;;;;;;5.43;2.93;;;18.70;99.90;;;;;;5070993;28;20507;-73
2022/05/20 04:52:23;;;;;;;3.83;3.20;;;18.60;99.90;;;;;;5071891;28;20532;-73
2022/05/20 04:54:49;;;;;;;3.70;2.57;;;18.60;99.90;;;;;;5071069;28;20536;-74
2022/05/20 04:57:30;;;;;;;3.00;2.70;;;18.70;99.90;;;;;;5070382;28;20810;-73
2022/05/20 05:00:00;;;;;;;4.53;3.00;;;18.70;99.90;;;;;;5067164;28;20457;-73
2022/05/20 05:02:28;;;;;;;2.87;2.50;;;18.80;99.90;;;;;;5070667;28;20480;-74
2022/05/20 05:04:54;;;;;;;4.73;3.30;;;18.80;99.90;;;;;;5069274;28;20960;-73
2022/05/20 05:07:22;;;;;;;4.10;3.10;;;18.90;99.90;;;;;;5071337;28;20442;-73
2022/05/20 05:09:49;;;;;;;3.73;3.33;;;19.00;99.90;;;;;;5067967;28;20988;-81
2022/05/20 05:12:16;;;;;;;2.97;2.50;;;19.10;99.90;;;;;;5068852;28;20445;-75
2022/05/20 05:14:46;;;;;;;3.30;3.00;;;19.10;99.90;;;;;;5071350;28;20477;-75
2022/05/20 05:17:15;;;;;;;4.30;3.07;;;19.10;99.90;;;;;;5070549;28;20446;-75
2022/05/20 05:19:44;;;;;;;3.23;2.77;;;19.20;99.90;;;;;;5070853;28;20445;-74
2022/05/20 05:22:11;;;;;;;3.57;3.03;;;19.40;13.50;;;;;;5069465;28;20478;-79
2022/05/20 05:24:39;;;;;;;5.10;2.43;;;19.50;1.00;;;;;;5070516;28;20526;-74
2022/05/20 05:27:06;;;;;;;7.83;2.77;;;19.70;1.00;;;;;;5070090;28;20453;-75
2022/05/20 05:29:38;;;;;;;5.13;3.17;;;19.70;1.00;;;;;;5071481;28;20529;-75
2022/05/20 05:32:08;;;;;;;3.80;3.00;;;19.70;1.00;;;;;;5068488;28;20520;-76
2022/05/20 05:34:35;;;;;;;3.80;2.93;;;19.90;99.90;;;;;;5068349;28;20444;-76
2022/05/20 05:37:03;;;;;;;2.70;2.50;;;19.90;99.90;;;;;;5067922;28;21002;-76
2022/05/20 05:39:30;;;;;;;3.60;2.90;;;20.00;99.90;;;;;;5068088;28;20978;-75
2022/05/20 05:42:00;;;;;;;3.13;2.37;;;20.10;98.70;;;;;;5067795;28;20485;-75
2022/05/20 05:44:27;;;;;;;4.10;3.20;;;20.20;99.90;;;;;;5068410;28;20515;-75
2022/05/20 05:46:54;;;;;;;5.60;3.20;;;20.30;1.00;;;;;;5067327;28;20918;-75
2022/05/20 05:49:23;;;;;;;3.73;3.00;;;20.40;48.90;;;;;;5068310;28;20438;-75
2022/05/20 05:51:50;;;;;;;3.10;2.70;;;20.50;1.00;;;;;;5067676;28;20442;-76
2022/05/20 05:54:18;;;;;;;5.00;3.40;;;20.60;99.90;;;;;;5068108;28;20481;-75
2022/05/20 05:56:44;;;;;;;3.23;2.93;;;20.70;1.00;;;;;;5066195;28;20900;-74
2022/05/20 05:59:11;;;;;;;2.90;2.70;;;20.80;1.00;;;;;;5067962;28;20446;-76
2022/05/20 06:01:38;;;;;;;5.53;3.30;;;20.90;99.90;;;;;;5067585;28;20454;-79
2022/05/20 06:04:05;;;;;;;4.90;3.00;;;20.90;1.00;;;;;;5071245;28;20499;-77
2022/05/20 06:06:38;;;;;;;3.37;2.73;;;21.00;1.00;;;;;;5076002;28;20825;-77
2022/05/20 06:09:05;;;;;;;3.20;2.60;;;21.00;99.90;;;;;;5066686;28;20445;-74
2022/05/20 06:11:31;;;;;;;4.00;3.27;;;21.10;48.50;;;;;;5069984;28;20462;-75
2022/05/20 06:13:58;;;;;;;2.67;2.47;;;21.10;99.90;;;;;;5067175;28;20537;-78
2022/05/20 06:16:25;;;;;;;2.27;2.07;;;21.20;32.30;;;;;;5068670;28;20441;-75
2022/05/20 06:18:52;;;;;;;3.40;3.10;;;21.30;1.00;;;;;;5068797;28;20528;-75
2022/05/20 06:21:19;;;;;;;3.87;2.93;;;21.50;99.90;;;;;;5071129;28;20458;-75
2022/05/20 06:23:47;;;;;;;2.83;2.53;;;21.60;99.90;;;;;;5074014;28;20486;-75
2022/05/20 06:26:14;;;;;;;2.87;2.57;;;;;;;;;;5073336;28;20445;-75
2022/05/20 06:28:41;;;;;;;3.10;2.57;;;21.70;99.90;;;;;;5073186;28;20455;-76
2022/05/20 06:31:08;;;;;;;3.07;2.87;;;21.90;1.00;;;;;;5072325;28;20664;-76
2022/05/20 06:33:35;;;;;;;3.37;2.60;;;22.00;1.00;;;;;;5073442;28;20445;-75
2022/05/20 06:41:32;;;;;;;2.77;2.30;;;22.30;99.90;;;;;;5073230;28;20507;-75
2022/05/20 06:43:59;;;;;;;3.40;2.40;;;22.40;99.90;;;;;;5071345;28;20553;-75
2022/05/20 06:46:26;;;;;;;3.00;2.47;;;22.50;99.90;;;;;;5070818;28;20481;-75
2022/05/20 06:48:55;;;;;;;3.37;2.80;;;22.60;99.90;;;;;;5069795;28;20488;-78
2022/05/20 06:51:24;;;;;;;5.67;2.40;;;22.70;93.70;;;;;;5071073;28;20577;-75
2022/05/20 06:53:53;;;;;;;3.87;2.40;;;22.80;1.00;;;;;;5072175;28;20456;-77
2022/05/20 06:56:22;;;;;;;2.73;2.50;;;22.90;1.00;;;;;;5072408;28;21123;-77
2022/05/20 06:58:49;;;;;;;2.83;2.20;;;23.10;1.00;;;;;;5071687;28;20804;-75
2022/05/20 07:01:16;;;;;;;2.60;2.40;;;23.20;1.00;;;;;;5072221;28;20450;-75
2022/05/20 07:03:43;;;;;;;2.83;2.20;;;23.20;1.00;;;;;;5069223;28;20478;-73
2022/05/20 07:06:12;;;;;;;2.93;2.73;;;23.40;1.00;;;;;;5071970;28;20540;-76
2022/05/20 07:08:39;;;;;;;3.00;2.30;;;23.40;1.00;;;;;;5072885;28;20453;-77
2022/05/20 07:11:07;;;;;;;3.30;2.37;;;23.50;1.00;;;;;;5070151;28;20458;-75
2022/05/20 07:13:35;;;;;;;2.73;2.53;;;23.60;1.00;;;;;;5071017;28;20461;-75
2022/05/20 07:16:02;;;;;;;3.40;2.67;;;23.70;1.00;;;;;;5063796;28;20816;-76
2022/05/20 07:18:29;;;;;;;3.00;2.30;;;23.80;1.00;;;;;;5071084;28;20455;-75
2022/05/20 07:20:57;;;;;;;2.50;2.27;;;24.00;1.00;;;;;;5070330;28;21422;-75
2022/05/20 07:23:26;;;;;;;3.03;2.30;;;24.00;1.00;;;;;;5070591;28;20481;-75
2022/05/20 07:25:53;;;;;;;3.17;2.40;;;24.00;1.00;;;;;;5070304;28;20582;-76
2022/05/20 07:28:21;;;;;;;2.60;2.33;;;24.10;1.00;;;;;;5070802;28;20986;-75
2022/05/20 07:30:48;;;;;;;3.97;2.60;;;24.20;1.00;;;;;;5069452;28;20568;-76
2022/05/20 07:33:15;;;;;;;2.73;2.50;;;24.30;1.00;;;;;;5068400;28;20450;-75
2022/05/20 07:35:42;;;;;;;2.77;2.40;;;24.40;1.00;;;;;;5069415;28;20457;-76
2022/05/20 07:38:09;;;;;;;3.23;2.77;;;24.50;99.90;;;;;;5065407;28;20528;-75
2022/05/20 07:40:37;;;;;;;4.50;3.10;;;24.50;99.90;;;;;;5065179;28;20451;-79
2022/05/20 07:43:04;;;;;;;2.93;2.53;;;24.70;99.90;;;;;;5068662;28;20535;-80
2022/05/20 07:45:32;;;;;;;2.27;2.07;;;24.70;99.90;;;;;;5067620;28;20441;-75
2022/05/20 07:47:59;;;;;;;3.20;2.40;;;24.80;99.90;;;;;;5067701;28;20441;-73
2022/05/20 07:50:26;;;;;;;2.90;2.37;;;24.80;99.90;;;;;;5068287;28;20899;-75
2022/05/20 07:55:44;;;;;;;2.50;2.30;;;25.00;99.90;;;;;;5066875;28;20425;-79
2022/05/20 07:58:14;;;;;;;2.67;2.30;;;25.00;99.90;;;;;;5068456;28;20441;-77
2022/05/20 08:00:42;;;;;;;2.40;1.97;;;25.20;99.90;;;;;;5065787;28;20465;-77
2022/05/20 08:03:13;;;;;;;2.53;2.33;;;25.20;99.90;;;;;;5067632;28;20473;-79
2022/05/20 08:05:39;;;;;;;5.80;2.83;;;25.50;99.90;;;;;;5069060;28;21021;-74
2022/05/20 08:08:08;;;;;;;2.53;2.33;;;25.60;99.90;;;;;;5069883;28;20479;-75
2022/05/20 08:10:37;;;;;;;3.03;2.50;;;25.60;99.90;;;;;;5069825;28;20817;-74
2022/05/20 08:13:04;;;;;;;2.50;2.30;;;25.60;99.90;;;;;;5069912;28;20482;-75
2022/05/20 08:15:34;;;;;;;3.10;2.27;;;25.70;99.90;;;;;;5069450;28;20937;-75
2022/05/20 08:18:02;;;;;;;2.33;2.00;;;25.80;99.90;;;;;;5069797;28;20515;-75
2022/05/20 08:20:30;;;;;;;2.37;2.17;;;25.80;99.90;;;;;;5069548;28;20446;-76
2022/05/20 08:22:58;;;;;;;3.33;2.50;;;25.80;99.90;;;;;;5068704;28;20570;-76
2022/05/20 08:25:26;;;;;;;2.20;1.90;;;25.90;99.90;;;;;;5070263;28;20464;-75
2022/05/20 08:27:54;;;;;;;2.40;2.20;;;26.00;99.90;;;;;;5068342;28;20508;-74
2022/05/20 08:30:23;;;;;;;4.40;2.50;;;25.90;99.90;;;;;;5069854;28;20458;-74
2022/05/20 08:32:50;;;;;;;4.40;2.50;;;26.10;99.90;;;;;;5066923;28;20446;-75
2022/05/20 08:35:19;;;;;;;2.07;1.97;;;26.10;99.90;;;;;;5068786;28;20533;-74
2022/05/20 08:37:48;;;;;;;2.87;2.60;;;26.20;99.90;;;;;;5068450;28;20947;-75
2022/05/20 08:40:21;;;;;;;6.63;3.03;;;26.40;99.90;;;;;;5065650;28;20830;-75
2022/05/20 08:42:49;;;;;;;3.10;2.80;;;26.40;99.90;;;;;;5064948;28;20496;-78
2022/05/20 08:45:20;;;;;;;2.23;2.03;;;26.40;99.90;;;;;;5067381;28;20454;-76
2022/05/20 08:47:48;;;;;;;3.40;2.73;;;26.60;99.90;;;;;;5065977;28;20445;-75
2022/05/20 08:50:20;;;;;;;3.20;2.33;;;26.50;99.90;;;;;;5066841;28;20472;-76
2022/05/20 08:52:48;;;;;;;2.43;2.10;;;26.70;99.90;;;;;;5066792;28;20762;-75
2022/05/20 08:55:15;;;;;;;2.43;2.23;;;26.80;99.90;;;;;;5068816;28;20441;-75
2022/05/20 08:57:51;;;;;;;3.90;2.60;;;26.80;99.90;;;;;;5068155;28;20449;-74
2022/05/20 09:00:20;;;;;;;2.33;2.13;;;26.90;99.90;;;;;;5067658;28;20485;-76
2022/05/20 09:02:47;;;;;;;2.57;2.37;;;27.10;99.90;;;;;;5067784;28;20456;-74
2022/05/20 09:05:20;;;;;;;2.93;2.60;;;27.30;99.90;;;;;;5064509;28;20524;-75
2022/05/20 09:08:00;;;;;;;3.80;2.20;;;27.30;99.90;;;;;;5068283;28;20445;-74
2022/05/20 09:10:39;;;;;;;3.23;2.50;;;27.30;99.90;;;;;;5067987;28;20492;-75
2022/05/20 09:13:10;;;;;;;3.77;2.77;;;27.50;99.90;;;;;;5066793;28;20562;-75
2022/05/20 09:15:46;;;;;;;2.60;2.40;;;27.70;99.90;;;;;;5058122;28;20965;-78
2022/05/20 09:18:18;;;;;;;3.50;2.13;;;27.60;98.10;;;;;;5068577;28;20449;-74
2022/05/20 09:20:49;;;;;;;3.77;2.97;;;27.50;95.50;;;;;;5068082;28;20441;-75
2022/05/20 09:23:20;;;;;;;2.47;2.10;;;27.80;91.40;;;;;;5067874;28;20880;-76
2022/05/20 09:25:59;;;;;;;2.90;2.10;;;27.80;90.70;;;;;;5068440;28;20441;-75
2022/05/20 09:28:36;;;;;;;4.13;2.20;;;28.10;85.90;;;;;;5067465;28;20457;-73
2022/05/20 09:31:16;;;;;;;2.70;2.50;;;28.30;81.50;;;;;;5068243;28;20539;-77
2022/05/20 09:33:52;;;;;;;2.80;2.20;;;28.30;75.00;;;;;;5065937;28;20527;-75
2022/05/20 09:36:39;;;;;;;2.90;2.70;;;28.40;62.60;;;;;;5067872;28;20453;-76
2022/05/20 09:39:13;;;;;;;3.23;2.80;;;28.30;58.30;;;;;;5066750;28;20449;-75
2022/05/20 09:41:49;;;;;;;2.60;2.40;;;28.30;54.30;;;;;;5066061;28;20485;-74
2022/05/20 09:44:19;;;;;;;3.10;2.70;;;28.30;54.80;;;;;;5065265;28;20485;-74
2022/05/20 09:46:51;;;;;;;2.37;2.17;;;28.50;45.70;;;;;;5065862;28;20507;-74
2022/05/20 09:49:26;;;;;;;2.50;2.30;;;28.40;42.10;;;;;;5066656;28;20441;-74
2022/05/20 09:51:58;;;;;;;3.17;2.87;;;28.60;51.00;;;;;;5064637;28;20448;-76
2022/05/20 09:54:32;;;;;;;2.40;2.20;;;28.50;37.30;;;;;;5066169;28;20565;-74
2022/05/20 09:57:05;;;;;;;2.70;2.50;;;28.80;33.20;;;;;;5065372;28;20528;-75
2022/05/20 09:59:50;;;;;;;2.83;2.57;;;28.80;35.30;;;;;;5063464;28;20462;-74
2022/05/20 10:02:26;;;;;;;3.07;2.77;;;28.90;28.30;;;;;;5065974;28;20456;-75
2022/05/20 10:05:01;;;;;;;3.00;2.43;;;28.80;30.30;;;;;;5066009;28;20843;-75
2022/05/20 10:07:45;;;;;;;2.70;2.50;;;28.80;27.50;;;;;;5066689;28;20487;-74
2022/05/20 10:10:18;;;;;;;3.07;2.50;;;28.90;22.80;;;;;;5067277;28;20453;-76
2022/05/20 10:12:49;;;;;;;3.60;2.43;;;28.90;20.60;;;;;;5067313;28;20448;-75
2022/05/20 10:15:20;;;;;;;5.90;3.20;;;29.00;20.10;;;;;;5068073;28;20532;-76
2022/05/20 10:18:05;;;;;;;3.17;2.90;;;29.10;19.90;;;;;;5068131;28;20445;-77
2022/05/20 10:20:36;;;;;;;7.73;2.70;;;29.30;19.10;;;;;;5068503;28;20520;-76
2022/05/20 10:23:13;;;;;;;2.40;2.13;;;29.20;16.40;;;;;;5068345;28;20508;-74
2022/05/20 10:25:51;;;;;;;2.40;2.20;;;29.30;12.10;;;;;;5070973;28;20456;-76
2022/05/20 10:34:09;;;;;;;2.97;2.50;;;29.60;1.00;;;;;;5065201;28;20472;-74
2022/05/20 10:36:47;;;;;;;3.03;2.73;;;29.60;1.00;;;;;;5068163;28;20496;-78
2022/05/20 10:39:20;;;;;;;2.87;2.60;;;;;;;;;;5067345;28;20482;-74
2022/05/20 10:41:54;;;;;;;3.60;2.43;;;;;;;;;;5062998;28;20449;-73
2022/05/20 10:50:05;;;;;;;2.43;2.00;;;;;;;;;;5065625;28;20432;-77
2022/05/20 10:52:44;;;;;;;2.00;1.70;;;;;;;;;;5066153;28;20936;-76
2022/05/20 10:55:20;;;;;;;2.40;2.20;;;;;;;;;;5064281;28;20461;-76
2022/05/20 10:58:05;;;;;;;2.90;2.30;;;;;;;;;;5063699;28;20447;-75
2022/05/20 11:00:37;;;;;;;2.10;1.90;;;;;;;;;;5066443;28;20461;-75
2022/05/20 11:03:31;;;;;;;2.20;2.00;;;;;;;;;;5065098;28;21124;-75
2022/05/20 11:06:12;;;;;;;2.57;2.37;;;;;;;;;;5040041;28;20491;-77
2022/05/20 11:08:46;;;;;;;2.80;2.47;;;;;;;;;;5068294;28;20531;-75
2022/05/20 11:11:25;;;;;;;2.27;2.07;;;;;;;;;;5071148;28;20463;-76
2022/05/20 11:14:00;;;;;;;2.63;2.43;;;;;;;;;;5070267;28;20237;-75
2022/05/20 11:16:40;;;;;;;2.23;2.03;;;;;;;;;;5069121;28;20843;-75
2022/05/20 11:19:17;;;;;;;2.50;2.30;;;;;;;;;;5061170;28;20221;-75
2022/05/20 11:21:55;;;;;;;2.30;1.97;;;;;;;;;;5070051;28;20315;-73
2022/05/20 11:24:27;;;;;;;3.10;2.27;;;;;;;;;;5070637;28;20303;-73
2022/05/20 11:27:09;;;;;;;2.57;2.27;;;;;;;;;;5070824;28;20195;-75
2022/05/20 11:29:48;;;;;;;3.40;2.47;;;;;;;;;;5070234;28;20278;-81
2022/05/20 11:32:19;;;;;;;2.77;2.13;;;;;;;;;;5062168;28;20584;-75
2022/05/20 11:35:04;;;;;;;2.50;2.17;;;;;;;;;;5067870;28;20206;-75
2022/05/20 11:37:46;;;;;;;2.60;2.40;;;;;;;;;;5070144;28;20230;-73
2022/05/20 11:40:19;;;;;;;3.10;2.37;;;;;;;;;;5057511;28;20235;-74
2022/05/20 11:43:02;;;;;;;2.83;2.50;;;;;;;;;;5066995;28;20667;-75
2022/05/20 11:45:32;;;;;;;2.57;2.00;;;;;;;;;;5067177;28;20302;-75
2022/05/20 11:48:19;;;;;;;5.23;2.90;;;;;;;;;;5067635;28;20191;-75
2022/05/20 11:51:14;;;;;;;2.00;1.80;;;29.70;1.00;;;;;;5067470;28;20202;-76
2022/05/20 11:53:46;;;;;;;3.67;2.63;;;31.70;1.00;;;;;;5067282;28;20207;-74
2022/05/20 11:56:19;;;;;;;2.40;2.20;;;31.70;1.00;;;;;;5068398;28;20598;-74
2022/05/20 11:58:54;;;;;;;2.70;2.07;;;31.30;1.00;;;;;;5067467;28;20195;-75
2022/05/20 12:01:23;;;;;;;2.43;2.23;;;31.30;1.00;;;;;;5066515;28;20191;-75
2022/05/20 12:04:08;;;;;;;2.85;2.28;;;31.60;1.00;;;;;;5066105;28;20249;-77
2022/05/20 12:06:42;;;;;;;2.90;2.50;;;31.50;1.00;;;;;;5064182;28;20557;-78
2022/05/20 12:09:41;;;;;;;7.32;3.08;;;31.50;1.00;;;;;;5057533;28;20706;-74
2022/05/20 12:12:24;;;;;;;2.22;2.03;;;31.40;1.00;;;;;;5068749;28;20195;-75
2022/05/20 12:15:09;;;;;;;3.30;2.40;;;31.40;1.00;;;;;;5069155;28;20248;-75
2022/05/20 12:17:38;;;;;;;3.33;1.97;;;31.60;1.00;;;;;;5069311;28;20744;-76
2022/05/20 12:26:22;;;;;;;2.33;1.90;;;31.40;1.00;;;;;;5069431;28;20572;-76
2022/05/20 12:28:49;;;;;;;2.77;2.30;;;31.50;1.00;;;;;;5068972;28;20563;-75
2022/05/20 12:31:38;;;;;;;2.42;2.22;;;31.70;1.00;;;;;;5068729;28;20218;-75
2022/05/20 12:34:07;;;;;;;2.33;1.58;;;31.80;1.00;;;;;;5067673;28;20645;-74
2022/05/20 12:36:37;;;;;;;3.00;2.08;;;31.80;1.00;;;;;;5069730;28;20199;-75
2022/05/20 12:39:18;;;;;;;3.38;2.38;;;32.00;1.00;;;;;;5069023;28;20205;-76
2022/05/20 12:41:58;;;;;;;4.50;2.63;;;31.60;1.00;;;;;;5067693;28;20205;-75
2022/05/20 12:44:36;;;;;;;2.30;1.90;;;31.40;1.00;;;;;;5067245;28;20211;-75
2022/05/20 12:47:16;;;;;;;2.60;2.40;;;31.60;1.00;;;;;;5067699;28;20190;-74
2022/05/20 12:49:52;;;;;;;2.63;2.30;;;31.40;1.00;;;;;;5067687;28;20205;-75
2022/05/20 12:52:25;;;;;;;2.10;1.90;;;31.80;1.00;;;;;;5067928;28;20201;-75
2022/05/20 12:54:54;;;;;;;2.60;2.40;;;31.90;1.00;;;;;;5068516;28;20230;-74
2022/05/20 12:57:24;;;;;;;2.33;2.10;;;32.00;1.00;;;;;;5068977;28;20522;-76
2022/05/20 12:59:52;;;;;;;2.85;2.55;;;32.20;1.00;;;;;;5068488;28;20199;-75
2022/05/20 13:02:21;;;;;;;2.10;1.90;;;32.10;1.00;;;;;;5067937;28;20265;-77
2022/05/20 13:04:56;;;;;;;4.38;2.00;;;32.30;1.00;;;;;;5068343;28;20587;-76
2022/05/20 13:07:25;;;;;;;2.10;1.90;;;32.00;1.00;;;;;;5067140;28;20524;-75
2022/05/20 13:09:51;;;;;;;2.38;2.17;;;32.20;1.00;;;;;;5066346;28;20191;-75
2022/05/20 13:12:21;;;;;;;2.47;2.20;;;32.10;1.00;;;;;;5068697;28;20191;-76
2022/05/20 13:14:58;;;;;;;2.07;1.97;;;32.20;1.00;;;;;;5067764;28;20206;-77
2022/05/20 13:17:26;;;;;;;2.20;1.90;;;32.10;1.00;;;;;;5068931;28;20201;-76
2022/05/20 13:19:56;;;;;;;2.20;2.00;;;32.20;1.00;;;;;;5068182;28;20309;-76
2022/05/20 13:22:25;;;;;;;2.65;2.17;;;32.60;1.00;;;;;;5068357;28;20290;-77
2022/05/20 13:24:58;;;;;;;2.28;2.08;;;32.70;1.00;;;;;;5068062;28;20647;-76
2022/05/20 13:27:25;;;;;;;2.47;2.10;;;32.70;1.00;;;;;;5067750;28;20289;-77
2022/05/20 13:29:53;;;;;;;2.38;2.17;;;32.70;1.00;;;;;;5065371;28;20198;-75
2022/05/20 13:32:22;;;;;;;2.03;1.83;;;;;;;;;;5067899;28;20703;-76
2022/05/20 13:34:51;;;;;;;4.18;2.58;;;;;;;;;;5063822;28;20221;-76
2022/05/20 13:37:22;;;;;;;2.60;1.75;;;;;;;;;;5067356;28;20202;-77
2022/05/20 13:39:53;;;;;;;2.60;2.40;;;;;;;;;;5066383;28;20195;-77
2022/05/20 13:42:20;;;;;;;2.60;2.30;;;;;;;;;;5067242;28;20677;-80
2022/05/20 13:44:47;;;;;;;2.05;1.90;;;;;;;;;;5062375;28;20276;-77
2022/05/20 13:50:02;;;;;;;2.22;1.80;;;;;;;;;;5064246;28;20201;-77
2022/05/20 13:52:29;;;;;;;2.70;2.38;;;;;;;;;;5066174;28;20556;-76
2022/05/20 13:55:00;;;;;;;4.60;1.95;;;32.90;1.00;;;;;;5065627;28;20435;-77
2022/05/20 13:57:31;;;;;;;2.33;1.90;;;;;;;;;;5066591;28;20214;-77
2022/05/20 14:00:00;;;;;;;2.30;2.08;;;;;;;;;;5066461;28;20191;-76